createdAt,value
2018-07-20T00:01:06.410Z,17.40
2018-07-20T00:03:35.957Z,17.30
2018-07-20T00:06:05.683Z,17.30
2018-07-20T00:08:34.491Z,17.30
2018-07-20T00:11:04.062Z,17.20
2018-07-20T00:13:33.158Z,17.20
2018-07-20T00:16:01.998Z,17.10
2018-07-20T00:18:30.795Z,17.10
2018-07-20T00:20:59.622Z,17.00
2018-07-20T00:23:28.454Z,17.00
2018-07-20T00:25:58.257Z,16.90
2018-07-20T00:28:27.371Z,17.00
2018-07-20T00:30:56.242Z,16.90
2018-07-20T00:33:25.278Z,16.90
2018-07-20T00:35:54.059Z,16.70
2018-07-20T00:38:22.896Z,16.70
2018-07-20T00:40:51.893Z,16.70
2018-07-20T00:43:21.562Z,16.70
2018-07-20T00:45:50.391Z,16.60
2018-07-20T00:48:19.673Z,16.60
2018-07-20T00:50:48.514Z,16.70
2018-07-20T00:53:17.319Z,16.60
2018-07-20T00:55:46.779Z,16.70
2018-07-20T00:58:16.130Z,16.80
2018-07-20T01:00:44.966Z,16.70
2018-07-20T01:03:13.750Z,16.70
2018-07-20T01:05:42.539Z,16.60
2018-07-20T01:08:11.349Z,16.50
2018-07-20T01:10:41.569Z,16.60
2018-07-20T01:13:10.351Z,16.60
2018-07-20T01:15:39.957Z,16.60
2018-07-20T01:18:08.788Z,16.70
2018-07-20T01:20:37.577Z,16.60
2018-07-20T01:23:06.952Z,16.40
2018-07-20T01:25:36.750Z,16.50
2018-07-20T01:28:07.361Z,16.40
2018-07-20T01:30:37.066Z,16.40
2018-07-20T01:33:09.054Z,16.50
2018-07-20T01:35:39.619Z,16.50
2018-07-20T01:38:09.474Z,16.40
2018-07-20T01:40:39.624Z,16.40
2018-07-20T01:43:09.075Z,16.30
2018-07-20T01:45:37.902Z,16.30
2018-07-20T01:48:06.925Z,16.30
2018-07-20T01:50:36.659Z,16.20
2018-07-20T01:53:05.457Z,16.10
2018-07-20T01:55:34.390Z,16.00
2018-07-20T01:58:04.260Z,16.00
2018-07-20T02:03:03.333Z,15.90
2018-07-20T02:05:32.190Z,15.80
2018-07-20T02:08:01.626Z,15.80
2018-07-20T02:10:30.481Z,15.70
2018-07-20T02:12:59.254Z,15.70
2018-07-20T02:15:28.133Z,15.80
2018-07-20T02:17:57.403Z,15.80
2018-07-20T02:20:26.262Z,15.80
2018-07-20T02:22:55.046Z,15.80
2018-07-20T02:25:23.862Z,15.80
2018-07-20T02:27:52.715Z,15.70
2018-07-20T02:30:22.135Z,15.70
2018-07-20T02:32:51.287Z,15.70
2018-07-20T02:35:20.162Z,15.70
2018-07-20T02:37:49.168Z,15.70
2018-07-20T02:40:18.016Z,15.50
2018-07-20T02:42:46.877Z,15.50
2018-07-20T02:45:15.655Z,15.30
2018-07-20T02:47:44.511Z,15.30
2018-07-20T02:50:13.343Z,15.30
2018-07-20T02:52:42.262Z,15.40
2018-07-20T02:55:17.384Z,15.30
2018-07-20T02:57:46.222Z,15.30
2018-07-20T03:00:15.040Z,15.30
2018-07-20T03:02:43.854Z,15.30
2018-07-20T03:05:12.905Z,15.30
2018-07-20T03:07:42.715Z,15.40
2018-07-20T03:10:11.538Z,15.30
2018-07-20T03:12:40.410Z,15.20
2018-07-20T03:15:09.282Z,15.20
2018-07-20T03:17:39.965Z,15.20
2018-07-20T03:20:10.678Z,15.20
2018-07-20T03:22:39.540Z,15.10
2018-07-20T03:25:09.564Z,15.10
2018-07-20T03:27:38.530Z,15.20
2018-07-20T03:30:07.402Z,15.30
2018-07-20T03:32:36.260Z,15.30
2018-07-20T03:35:05.333Z,15.20
2018-07-20T03:37:34.131Z,15.20
2018-07-20T03:40:03.067Z,15.30
2018-07-20T03:42:32.073Z,15.30
2018-07-20T03:45:00.940Z,15.30
2018-07-20T03:47:29.818Z,15.30
2018-07-20T03:49:58.677Z,15.30
2018-07-20T03:52:27.524Z,15.30
2018-07-20T03:54:56.331Z,15.20
2018-07-20T03:57:25.253Z,15.20
2018-07-20T03:59:54.317Z,15.10
2018-07-20T04:02:24.182Z,15.20
2018-07-20T04:04:52.966Z,15.30
2018-07-20T04:07:22.746Z,15.40
2018-07-20T04:09:51.530Z,15.40
2018-07-20T04:12:20.354Z,15.40
2018-07-20T04:14:49.208Z,15.40
2018-07-20T04:17:18.230Z,15.50
2018-07-20T04:19:47.009Z,15.50
2018-07-20T04:22:18.131Z,15.50
2018-07-20T04:24:47.007Z,15.60
2018-07-20T04:27:15.827Z,15.60
2018-07-20T04:29:44.690Z,15.70
2018-07-20T04:32:13.949Z,15.80
2018-07-20T04:34:42.786Z,15.80
2018-07-20T04:37:12.027Z,15.80
2018-07-20T04:39:40.830Z,15.90
2018-07-20T04:42:10.526Z,16.00
2018-07-20T04:44:39.374Z,16.20
2018-07-20T04:47:08.982Z,16.30
2018-07-20T04:49:38.109Z,16.50
2018-07-20T04:52:06.966Z,16.40
2018-07-20T04:54:35.843Z,16.60
2018-07-20T04:57:04.817Z,16.80
2018-07-20T04:59:33.648Z,16.90
2018-07-20T05:02:02.519Z,17.10
2018-07-20T05:04:32.096Z,17.20
2018-07-20T05:07:02.239Z,17.30
2018-07-20T05:09:31.119Z,17.50
2018-07-20T05:12:00.063Z,17.60
2018-07-20T05:14:30.342Z,17.80
2018-07-20T05:16:59.357Z,17.80
2018-07-20T05:19:29.948Z,17.90
2018-07-20T05:21:59.136Z,18.00
2018-07-20T05:24:29.310Z,18.20
2018-07-20T05:26:58.601Z,18.50
2018-07-20T05:29:27.654Z,18.60
2018-07-20T05:31:56.678Z,19.40
2018-07-20T05:34:25.953Z,20.30
2018-07-20T05:36:55.229Z,21.30
2018-07-20T05:39:25.625Z,22.20
2018-07-20T05:41:54.503Z,22.90
2018-07-20T05:44:23.403Z,23.70
2018-07-20T05:46:52.741Z,23.80
2018-07-20T05:49:21.578Z,24.10
2018-07-20T05:51:50.633Z,24.70
2018-07-20T05:54:19.682Z,24.80
2018-07-20T05:56:49.602Z,25.10
2018-07-20T05:59:21.353Z,25.00
2018-07-20T06:01:50.250Z,24.80
2018-07-20T06:04:19.172Z,25.00
2018-07-20T06:06:48.665Z,24.90
2018-07-20T06:09:17.521Z,24.60
2018-07-20T06:11:46.344Z,24.70
2018-07-20T06:14:15.726Z,25.00
2018-07-20T06:16:44.491Z,25.00
2018-07-20T06:19:13.444Z,24.70
2018-07-20T06:21:42.268Z,25.10
2018-07-20T06:24:11.163Z,24.90
2018-07-20T06:26:42.230Z,25.60
2018-07-20T06:29:11.157Z,26.10
2018-07-20T06:31:39.979Z,25.40
2018-07-20T06:34:08.894Z,25.50
2018-07-20T06:36:39.422Z,25.70
2018-07-20T06:39:10.312Z,26.30
2018-07-20T06:41:51.196Z,26.10
2018-07-20T06:44:27.268Z,25.60
2018-07-20T06:46:56.380Z,24.40
2018-07-20T06:49:25.689Z,24.50
2018-07-20T06:51:55.570Z,24.20
2018-07-20T06:54:24.671Z,24.00
2018-07-20T06:56:53.568Z,24.20
2018-07-20T06:59:23.461Z,24.70
2018-07-20T07:01:52.688Z,25.00
2018-07-20T07:04:23.190Z,25.60
2018-07-20T07:06:58.312Z,26.50
2018-07-20T07:09:27.595Z,26.10
2018-07-20T07:11:56.676Z,25.90
2018-07-20T07:14:25.546Z,25.70
2018-07-20T07:16:55.654Z,25.70
2018-07-20T07:19:24.622Z,25.60
2018-07-20T07:21:55.623Z,25.40
2018-07-20T07:24:30.836Z,25.50
2018-07-20T07:27:00.851Z,26.00
2018-07-20T07:29:31.082Z,27.20
2018-07-20T07:32:00.916Z,28.20
2018-07-20T07:34:31.128Z,28.50
2018-07-20T07:37:02.188Z,28.10
2018-07-20T07:39:31.117Z,28.30
2018-07-20T07:42:01.802Z,28.30
2018-07-20T07:44:30.641Z,28.50
2018-07-20T07:47:00.666Z,28.60
2018-07-20T07:49:29.831Z,28.20
2018-07-20T07:51:59.058Z,27.40
2018-07-20T07:54:28.291Z,27.20
2018-07-20T07:57:02.397Z,27.50
2018-07-20T07:59:32.743Z,27.10
2018-07-20T08:02:05.270Z,27.30
2018-07-20T08:04:34.320Z,27.30
2018-07-20T08:07:04.859Z,27.70
2018-07-20T08:09:34.511Z,29.00
2018-07-20T08:12:04.864Z,29.70
2018-07-20T08:14:34.101Z,29.60
2018-07-20T08:17:03.042Z,29.70
2018-07-20T08:19:32.078Z,30.30
2018-07-20T08:22:01.421Z,30.80
2018-07-20T08:24:30.679Z,30.80
2018-07-20T08:26:59.559Z,30.40
2018-07-20T08:29:29.060Z,30.90
2018-07-20T08:32:05.861Z,31.30
2018-07-20T08:34:34.875Z,31.20
2018-07-20T08:37:03.931Z,30.90
2018-07-20T08:42:01.626Z,31.10
2018-07-20T08:44:31.017Z,31.50
2018-07-20T08:46:59.921Z,32.30
2018-07-20T08:49:39.530Z,33.30
2018-07-20T08:52:10.618Z,33.20
2018-07-20T08:54:43.387Z,32.70
2018-07-20T08:57:15.243Z,33.10
2018-07-20T08:59:45.722Z,33.20
2018-07-20T09:02:14.865Z,32.40
2018-07-20T09:04:44.215Z,32.80
2018-07-20T09:07:13.221Z,33.00
2018-07-20T09:09:42.245Z,33.10
2018-07-20T09:12:11.942Z,32.70
2018-07-20T09:14:41.128Z,32.70
2018-07-20T09:17:13.913Z,31.90
2018-07-20T09:19:44.246Z,32.40
2018-07-20T09:22:36.817Z,32.90
2018-07-20T09:25:06.236Z,33.20
2018-07-20T09:27:35.488Z,33.80
2018-07-20T09:30:07.205Z,32.80
2018-07-20T09:32:36.147Z,33.20
2018-07-20T09:35:05.145Z,33.20
2018-07-20T09:37:34.181Z,33.20
2018-07-20T09:40:03.090Z,32.00
2018-07-20T09:42:31.938Z,32.40
2018-07-20T09:45:01.622Z,32.00
2018-07-20T09:47:30.474Z,32.00
2018-07-20T09:50:01.147Z,32.00
2018-07-20T09:52:30.304Z,30.60
2018-07-20T09:54:59.717Z,30.00
2018-07-20T09:57:29.611Z,30.20
2018-07-20T09:59:59.378Z,30.40
2018-07-20T10:02:29.090Z,30.20
2018-07-20T10:05:00.759Z,30.10
2018-07-20T10:07:31.404Z,30.40
2018-07-20T10:10:00.455Z,30.60
2018-07-20T10:12:31.544Z,32.00
2018-07-20T10:15:00.479Z,32.50
2018-07-20T10:17:29.469Z,33.40
2018-07-20T10:20:00.720Z,35.00
2018-07-20T10:22:33.559Z,36.10
2018-07-20T10:25:03.812Z,36.10
2018-07-20T10:27:32.892Z,36.70
2018-07-20T10:30:04.295Z,35.60
2018-07-20T10:32:33.219Z,34.60
2018-07-20T10:35:05.741Z,34.80
2018-07-20T10:37:34.852Z,34.90
2018-07-20T10:40:05.168Z,33.50
2018-07-20T10:42:34.687Z,33.20
2018-07-20T10:45:04.216Z,32.20
2018-07-20T10:47:33.267Z,30.70
2018-07-20T10:50:03.156Z,31.70
2018-07-20T10:52:34.652Z,33.10
2018-07-20T10:55:03.660Z,34.50
2018-07-20T11:00:01.766Z,34.40
2018-07-20T11:02:31.751Z,33.80
2018-07-20T11:12:31.637Z,33.50
2018-07-20T11:15:01.138Z,34.40
2018-07-20T11:17:37.357Z,34.10
2018-07-20T11:20:07.704Z,33.80
2018-07-20T11:22:40.208Z,32.80
2018-07-20T11:25:11.198Z,32.70
2018-07-20T11:27:44.202Z,33.00
2018-07-20T11:30:15.430Z,33.10
2018-07-20T11:32:45.649Z,34.10
2018-07-20T11:35:16.218Z,35.10
2018-07-20T11:37:49.372Z,35.60
2018-07-20T11:40:20.747Z,35.90
2018-07-20T11:42:51.171Z,35.10
2018-07-20T11:45:21.117Z,34.40
2018-07-20T11:47:53.142Z,34.00
2018-07-20T11:50:38.265Z,34.20
2018-07-20T11:53:07.438Z,34.20
2018-07-20T11:55:36.363Z,33.40
2018-07-20T11:58:05.348Z,32.30
2018-07-20T12:00:34.856Z,31.80
2018-07-20T12:03:04.011Z,30.60
2018-07-20T12:05:33.547Z,30.10
2018-07-20T12:08:05.120Z,29.80
2018-07-20T12:10:35.114Z,29.60
2018-07-20T12:13:04.042Z,29.20
2018-07-20T12:15:32.947Z,29.10
2018-07-20T12:18:01.844Z,29.10
2018-07-20T12:20:30.739Z,29.20
2018-07-20T12:23:06.343Z,29.20
2018-07-20T12:25:38.256Z,29.00
2018-07-20T12:28:11.340Z,29.10
2018-07-20T12:30:40.710Z,29.20
2018-07-20T12:33:10.091Z,29.10
2018-07-20T12:35:39.898Z,29.30
2018-07-20T12:38:14.235Z,29.80
2018-07-20T12:40:43.685Z,30.10
2018-07-20T12:43:12.585Z,30.00
2018-07-20T12:48:16.552Z,29.90
2018-07-20T12:50:46.196Z,29.80
2018-07-20T12:53:16.117Z,29.60
2018-07-20T12:55:45.144Z,29.70
2018-07-20T12:58:14.463Z,29.90
2018-07-20T13:00:44.060Z,30.00
2018-07-20T13:03:15.350Z,29.90
2018-07-20T13:05:44.662Z,30.00
2018-07-20T13:08:15.156Z,30.30
2018-07-20T13:10:43.984Z,30.40
2018-07-20T13:13:13.455Z,30.00
2018-07-20T13:15:43.197Z,30.20
2018-07-20T13:18:13.493Z,30.30
2018-07-20T13:20:42.445Z,30.20
2018-07-20T13:23:12.773Z,29.60
2018-07-20T13:25:43.463Z,29.20
2018-07-20T13:28:13.733Z,29.10
2018-07-20T13:30:43.698Z,29.30
2018-07-20T13:33:12.710Z,28.90
2018-07-20T13:35:45.722Z,28.70
2018-07-20T13:38:14.883Z,28.60
2018-07-20T13:40:44.456Z,28.50
2018-07-20T13:43:14.166Z,28.40
2018-07-20T13:45:45.357Z,28.40
2018-07-20T13:48:14.286Z,28.50
2018-07-20T13:50:45.428Z,28.50
2018-07-20T13:53:14.815Z,28.60
2018-07-20T13:55:44.181Z,28.80
2018-07-20T13:58:14.351Z,29.10
2018-07-20T14:00:44.162Z,29.50
2018-07-20T14:03:15.148Z,29.70
2018-07-20T14:05:45.854Z,29.80
2018-07-20T14:08:17.766Z,29.80
2018-07-20T14:10:49.290Z,29.60
2018-07-20T14:13:22.700Z,29.50
2018-07-20T14:15:53.311Z,29.60
2018-07-20T14:18:22.536Z,29.60
2018-07-20T14:20:53.059Z,29.90
2018-07-20T14:23:22.146Z,29.60
2018-07-20T14:25:52.215Z,29.30
2018-07-20T14:28:21.876Z,29.20
2018-07-20T14:30:57.602Z,29.00
2018-07-20T14:33:30.061Z,29.20
2018-07-20T14:36:00.169Z,29.40
2018-07-20T14:38:32.210Z,29.50
2018-07-20T14:41:08.114Z,29.70
2018-07-20T14:43:37.226Z,29.70
2018-07-20T14:46:06.307Z,29.80
2018-07-20T14:48:35.194Z,29.80
2018-07-20T14:51:04.140Z,29.60
2018-07-20T14:53:33.929Z,29.50
2018-07-20T14:56:03.000Z,29.50
2018-07-20T14:58:34.259Z,29.50
2018-07-20T15:01:03.290Z,29.60
2018-07-20T15:03:32.926Z,29.50
2018-07-20T15:06:04.705Z,29.10
2018-07-20T15:08:34.356Z,29.00
2018-07-20T15:11:04.410Z,29.00
2018-07-20T15:13:35.389Z,28.90
2018-07-20T15:16:04.326Z,29.10
2018-07-20T15:18:33.221Z,29.20
2018-07-20T15:21:02.393Z,29.10
2018-07-20T15:23:32.593Z,29.10
2018-07-20T15:26:03.011Z,28.70
2018-07-20T15:28:32.803Z,28.40
2018-07-20T15:31:01.815Z,28.40
2018-07-20T15:33:32.264Z,28.10
2018-07-20T15:36:01.351Z,28.10
2018-07-20T15:38:30.281Z,28.20
2018-07-20T15:40:59.909Z,28.30
2018-07-20T15:43:28.789Z,28.20
2018-07-20T15:46:05.967Z,28.40
2018-07-20T15:48:29.444Z,28.50
2018-07-20T15:50:59.140Z,28.40
2018-07-20T15:53:37.358Z,28.40
2018-07-20T15:55:58.633Z,28.40
2018-07-20T15:58:28.660Z,28.50
2018-07-20T16:00:57.599Z,28.30
2018-07-20T16:03:28.070Z,28.20
2018-07-20T16:06:02.516Z,28.40
2018-07-20T16:08:31.650Z,28.30
2018-07-20T16:11:01.578Z,28.20
2018-07-20T16:13:32.305Z,28.30
2018-07-20T16:16:02.656Z,28.30
2018-07-20T16:18:33.628Z,28.20
2018-07-20T16:21:02.496Z,28.10
2018-07-20T16:23:33.147Z,28.00
2018-07-20T16:28:32.834Z,27.90
2018-07-20T16:31:01.915Z,27.90
2018-07-20T16:33:30.795Z,28.10
2018-07-20T16:36:00.089Z,28.30
2018-07-20T16:38:30.391Z,28.40
2018-07-20T16:40:59.426Z,28.40
2018-07-20T16:43:29.035Z,28.40
2018-07-20T16:45:58.182Z,28.30
2018-07-20T16:48:27.246Z,28.20
2018-07-20T16:50:57.115Z,28.10
2018-07-20T16:53:26.221Z,27.90
2018-07-20T16:55:55.562Z,27.80
2018-07-20T16:58:25.442Z,27.80
2018-07-20T17:00:55.070Z,27.70
2018-07-20T17:03:24.997Z,27.70
2018-07-20T17:05:54.161Z,27.70
2018-07-20T17:08:23.038Z,27.70
2018-07-20T17:10:57.911Z,27.60
2018-07-20T17:13:26.776Z,27.40
2018-07-20T17:15:55.763Z,27.50
2018-07-20T17:18:24.740Z,27.40
2018-07-20T17:20:54.307Z,27.40
2018-07-20T17:23:24.278Z,27.40
2018-07-20T17:25:54.805Z,27.40
2018-07-20T17:28:23.669Z,27.30
2018-07-20T17:30:54.255Z,27.20
2018-07-20T17:33:24.755Z,27.00
2018-07-20T17:36:02.311Z,26.90
2018-07-20T17:38:31.327Z,27.00
2018-07-20T17:41:02.491Z,27.00
2018-07-20T17:43:31.417Z,27.10
2018-07-20T17:46:01.749Z,27.10
2018-07-20T17:48:33.848Z,27.00
2018-07-20T17:51:05.572Z,26.90
2018-07-20T17:53:34.506Z,26.90
2018-07-20T17:56:03.656Z,26.80
2018-07-20T17:58:38.088Z,26.80
2018-07-20T18:01:07.494Z,26.70
2018-07-20T18:03:36.575Z,26.70
2018-07-20T18:06:06.082Z,26.60
2018-07-20T18:08:35.065Z,26.60
2018-07-20T18:11:04.278Z,26.60
2018-07-20T18:13:33.675Z,26.50
2018-07-20T18:16:04.317Z,26.50
2018-07-20T18:18:33.290Z,26.40
2018-07-20T18:21:02.272Z,26.40
2018-07-20T18:23:31.394Z,26.30
2018-07-20T18:26:00.646Z,26.30
2018-07-20T18:28:29.502Z,26.20
2018-07-20T18:30:59.069Z,26.10
2018-07-20T18:33:28.254Z,26.10
2018-07-20T18:37:19.086Z,26.00
2018-07-20T18:39:49.971Z,26.00
2018-07-20T18:42:25.771Z,25.90
2018-07-20T18:44:55.119Z,25.80
2018-07-20T18:47:24.945Z,25.70
2018-07-20T18:49:53.920Z,25.70
2018-07-20T18:54:54.197Z,25.60
2018-07-20T18:57:24.477Z,25.50
2018-07-20T18:59:53.563Z,25.40
2018-07-20T19:02:26.109Z,25.30
2018-07-20T19:04:57.196Z,25.20
2018-07-20T19:07:26.307Z,24.90
2018-07-20T19:09:56.277Z,24.60
2018-07-20T19:12:25.263Z,24.40
2018-07-20T19:14:55.254Z,24.40
2018-07-20T19:17:25.807Z,24.30
2018-07-20T19:19:55.292Z,24.40
2018-07-20T19:22:30.154Z,24.30
2018-07-20T19:25:00.313Z,24.30
2018-07-20T19:27:30.559Z,23.80
2018-07-20T19:29:59.895Z,23.70
2018-07-20T19:32:30.413Z,23.60
2018-07-20T19:35:00.407Z,23.50
2018-07-20T19:37:31.057Z,23.60
2018-07-20T19:40:01.023Z,23.40
2018-07-20T19:42:31.007Z,23.20
2018-07-20T19:45:00.157Z,23.20
2018-07-20T19:47:32.163Z,23.00
2018-07-20T19:50:02.400Z,23.10
2018-07-20T19:52:31.554Z,23.20
2018-07-20T19:55:03.628Z,23.10
2018-07-20T19:57:33.594Z,23.20
2018-07-20T20:00:04.327Z,23.20
2018-07-20T20:02:34.867Z,23.20
2018-07-20T20:05:06.173Z,23.20
2018-07-20T20:07:36.236Z,23.20
2018-07-20T20:10:05.653Z,23.20
2018-07-20T20:12:35.806Z,23.20
2018-07-20T20:15:05.280Z,23.20
2018-07-20T20:17:35.143Z,23.30
2018-07-20T20:20:04.211Z,23.30
2018-07-20T20:22:35.346Z,23.20
2018-07-20T20:25:04.286Z,23.20
2018-07-20T20:27:33.215Z,23.10
2018-07-20T20:30:03.529Z,23.10
2018-07-20T20:32:33.166Z,23.10
2018-07-20T20:35:02.460Z,23.10
2018-07-20T20:37:37.815Z,23.10
2018-07-20T20:40:07.732Z,23.10
2018-07-20T20:42:36.701Z,23.10
2018-07-20T20:45:08.721Z,23.10
2018-07-20T20:47:39.132Z,23.00
2018-07-20T20:50:12.152Z,23.10
2018-07-20T20:52:41.459Z,23.10
2018-07-20T20:55:13.725Z,23.00
2018-07-20T20:57:43.417Z,23.00
2018-07-20T21:00:12.651Z,23.00
2018-07-20T21:02:45.033Z,23.00
2018-07-20T21:05:14.536Z,23.00
2018-07-20T21:07:44.246Z,22.90
2018-07-20T21:10:14.498Z,22.90
2018-07-20T21:12:44.139Z,22.90
2018-07-20T21:15:14.234Z,22.90
2018-07-20T21:17:45.361Z,22.90
2018-07-20T21:20:14.679Z,22.80
2018-07-20T21:22:44.135Z,22.80
2018-07-20T21:25:16.175Z,22.80
2018-07-20T21:27:46.635Z,22.80
2018-07-20T21:30:15.706Z,22.80
2018-07-20T21:32:45.411Z,22.70
2018-07-20T21:35:16.387Z,22.70
2018-07-20T21:37:47.314Z,22.60
2018-07-20T21:40:17.224Z,22.60
2018-07-20T21:42:47.490Z,22.60
2018-07-20T21:45:18.167Z,22.60
2018-07-20T21:47:50.264Z,22.50
2018-07-20T21:50:26.201Z,22.50
2018-07-20T21:52:56.206Z,22.50
2018-07-20T21:55:25.739Z,22.40
2018-07-20T21:57:55.027Z,22.40
2018-07-20T22:00:26.538Z,22.40
2018-07-20T22:02:57.682Z,22.30
2018-07-20T22:05:28.441Z,22.30
2018-07-20T22:07:57.291Z,22.30
2018-07-20T22:10:27.708Z,22.30
2018-07-20T22:12:56.933Z,22.20
2018-07-20T22:15:26.002Z,22.20
2018-07-20T22:17:55.222Z,22.20
2018-07-20T22:20:25.047Z,22.10
2018-07-20T22:22:54.395Z,22.10
2018-07-20T22:25:23.226Z,22.00
2018-07-20T22:27:53.049Z,22.00
2018-07-20T22:30:23.375Z,22.00
2018-07-20T22:32:53.444Z,22.00
2018-07-20T22:35:25.163Z,22.00
2018-07-20T22:37:57.145Z,21.90
2018-07-20T22:40:27.132Z,21.90
2018-07-20T22:42:56.154Z,21.80
2018-07-20T22:45:25.142Z,21.80
2018-07-20T22:47:56.248Z,21.70
2018-07-20T22:50:25.320Z,21.70
2018-07-20T22:52:54.180Z,21.60
2018-07-20T22:55:23.164Z,21.60
2018-07-20T22:57:52.625Z,21.60
2018-07-20T23:00:22.162Z,21.50
2018-07-20T23:02:51.315Z,21.40
2018-07-20T23:05:20.310Z,21.30
2018-07-20T23:07:50.350Z,21.30
2018-07-20T23:10:19.163Z,21.30
2018-07-20T23:12:48.799Z,21.20
2018-07-20T23:15:17.623Z,21.20
2018-07-20T23:17:48.118Z,21.20
2018-07-20T23:20:17.114Z,21.20
2018-07-20T23:22:46.309Z,21.20
2018-07-20T23:25:15.376Z,21.10
2018-07-20T23:27:44.646Z,21.10
2018-07-20T23:30:13.631Z,21.10
2018-07-20T23:32:44.266Z,21.10
2018-07-20T23:35:13.416Z,21.00
2018-07-20T23:37:42.275Z,21.00
2018-07-20T23:40:12.576Z,21.00
2018-07-20T23:42:43.502Z,20.90
2018-07-20T23:45:13.488Z,21.00
2018-07-20T23:47:42.357Z,21.00
2018-07-20T23:50:11.159Z,21.00
2018-07-20T23:52:39.934Z,21.00
2018-07-20T23:55:10.040Z,20.90
2018-07-20T23:57:39.738Z,21.00
